Time;durP1;ratioP1;P1;durP2;ratioP2;P2;SDS_P1;SDS_P2;PMS_P1;PMS_P2;Temp;Humidity;BMP_temperature;BMP_pressure;BME280_temperature;BME280_humidity;BME280_pressure;Samples;Min_cycle;Max_cycle;Signal;HPM_P1;HPM_P2
2021/11/27 00:00:04;175072.00;0.58;303.00;0.00;0.00;0.62;;;;;9.00;1.00;;;;;;2255491;61;1077;-85
2021/11/27 00:02:31;198523.00;0.66;343.38;0.00;0.00;0.62;;;;;9.20;1.00;;;;;;2265111;61;1096;-84
2021/11/27 00:04:58;483205.00;1.61;832.91;0.00;0.00;0.62;;;;;9.30;1.00;;;;;;2259955;61;1001;-85
2021/11/27 00:07:24;192267.00;0.64;332.61;0.00;0.00;0.62;;;;;9.40;1.00;;;;;;2273308;60;1063;-85
2021/11/27 00:09:51;288028.00;0.96;497.34;0.00;0.00;0.62;;;;;9.90;1.00;;;;;;2260941;61;1920;-84
2021/11/27 00:12:20;426443.00;1.42;735.27;0.00;0.00;0.62;;;;;10.10;1.00;;;;;;2257190;61;981;-84
2021/11/27 00:14:46;425121.00;1.42;733.00;0.00;0.00;0.62;;;;;10.30;1.00;;;;;;2254711;61;1073;-86
2021/11/27 00:17:13;411414.00;1.37;709.43;0.00;0.00;0.62;;;;;10.40;1.00;;;;;;2260755;61;985;-84
2021/11/27 00:19:40;418977.00;1.40;722.43;0.00;0.00;0.62;;;;;10.60;1.00;;;;;;2254450;61;1382;-81
2021/11/27 00:22:07;318415.00;1.06;549.57;0.00;0.00;0.62;;;;;10.50;1.00;;;;;;2253082;61;1084;-86
2021/11/27 00:24:34;395931.00;1.32;682.81;0.00;0.00;0.62;;;;;10.80;1.00;;;;;;2249697;61;1023;-85
2021/11/27 00:27:01;291522.00;0.97;503.35;0.00;0.00;0.62;;;;;10.90;1.00;;;;;;2250514;61;1101;-85
2021/11/27 00:29:29;387112.00;1.29;667.65;0.00;0.00;0.62;;;;;10.60;1.00;;;;;;2261962;61;1480;-82
2021/11/27 00:31:56;364905.00;1.22;629.48;0.00;0.00;0.62;;;;;10.00;1.00;;;;;;2268992;61;2034;-83
2021/11/27 00:34:23;323500.00;1.08;558.31;0.00;0.00;0.62;;;;;9.80;1.00;;;;;;2269623;60;989;-85
2021/11/27 00:36:51;437866.00;1.46;754.91;0.00;0.00;0.62;;;;;9.50;1.00;;;;;;2272994;61;1029;-83
2021/11/27 00:39:18;355179.00;1.18;612.76;0.00;0.00;0.62;;;;;9.60;1.00;;;;;;2273982;60;1206;-84
2021/11/27 00:41:45;378541.00;1.26;652.92;0.00;0.00;0.62;;;;;9.70;1.00;;;;;;2274759;60;1126;-85
2021/11/27 00:44:12;483577.00;1.61;833.55;92516.00;0.31;160.65;;;;;9.80;1.00;;;;;;2271190;60;963;-83
2021/11/27 00:46:41;360320.00;1.20;621.60;0.00;0.00;0.62;;;;;9.70;1.00;;;;;;2277951;60;1138;-83
2021/11/27 00:49:08;431370.00;1.44;743.74;0.00;0.00;0.62;;;;;9.50;1.00;;;;;;2281625;60;1436;-83
2021/11/27 00:51:35;274453.00;0.91;474.00;0.00;0.00;0.62;;;;;9.70;1.00;;;;;;2274590;60;1911;-83
2021/11/27 00:54:02;320554.00;1.07;553.25;0.00;0.00;0.62;;;;;9.50;1.00;;;;;;2281637;60;1132;-86
2021/11/27 00:56:30;256832.00;0.86;443.70;0.00;0.00;0.62;;;;;9.50;1.00;;;;;;2273066;60;1151;-83
2021/11/27 00:58:57;350655.00;1.17;604.99;0.00;0.00;0.62;;;;;9.70;1.00;;;;;;2273123;61;1341;-84
2021/11/27 01:01:29;224990.00;0.75;388.93;0.00;0.00;0.62;;;;;10.00;1.00;;;;;;2264744;61;1068;-85
2021/11/27 01:03:57;351773.00;1.17;606.91;0.00;0.00;0.62;;;;;10.10;1.00;;;;;;2264925;61;1076;-82
2021/11/27 01:06:27;251004.00;0.84;433.68;0.00;0.00;0.62;;;;;10.30;1.00;;;;;;2261539;61;1119;-85
2021/11/27 01:08:57;207745.00;0.69;359.25;0.00;0.00;0.62;;;;;10.80;1.00;;;;;;2265134;61;1458;-86
2021/11/27 01:11:28;256959.00;0.86;443.92;0.00;0.00;0.62;;;;;11.00;1.00;;;;;;2265126;61;1923;-84
2021/11/27 01:13:59;257068.00;0.86;444.11;0.00;0.00;0.62;;;;;11.30;1.00;;;;;;2266868;61;1095;-83
2021/11/27 01:16:32;375158.00;1.25;647.10;0.00;0.00;0.62;;;;;11.00;1.00;;;;;;2263040;61;1021;-84
2021/11/27 01:19:01;249999.00;0.83;431.95;0.00;0.00;0.62;;;;;11.30;1.00;;;;;;2265421;60;1456;-83
2021/11/27 01:21:31;173765.00;0.58;300.75;0.00;0.00;0.62;;;;;11.60;1.00;;;;;;2281479;60;996;-85
2021/11/27 01:26:26;314249.00;1.05;542.41;0.00;0.00;0.62;;;;;11.60;1.00;;;;;;2266960;61;1408;-82
2021/11/27 01:31:21;327934.00;1.09;565.94;0.00;0.00;0.62;;;;;11.20;1.00;;;;;;2282928;60;1957;-85
2021/11/27 01:33:48;367310.00;1.22;633.61;0.00;0.00;0.62;;;;;11.00;1.00;;;;;;2274565;60;1131;-86
2021/11/27 01:36:16;171513.00;0.57;296.87;0.00;0.00;0.62;;;;;11.10;1.00;;;;;;2281493;60;1044;-85
2021/11/27 01:38:45;222525.00;0.74;384.69;0.00;0.00;0.62;;;;;11.40;1.00;;;;;;2274402;60;1308;-83
2021/11/27 01:41:14;274940.00;0.92;474.84;0.00;0.00;0.62;;;;;11.60;1.00;;;;;;2274512;60;1019;-84
2021/11/27 01:43:42;478266.00;1.59;824.41;21372.00;0.07;37.65;;;;;11.80;1.00;;;;;;2274546;60;1018;-85
2021/11/27 01:46:10;551982.00;1.84;951.38;47159.00;0.16;82.27;;;;;12.00;1.00;;;;;;2281607;60;1011;-83
2021/11/27 01:48:38;163419.00;0.54;282.93;0.00;0.00;0.62;;;;;11.90;1.00;;;;;;2281550;60;1462;-87
2021/11/27 01:51:08;679734.00;2.27;1172.11;69457.00;0.23;120.82;;;;;11.40;1.00;;;;;;2281533;60;1917;-84
2021/11/27 01:53:40;188099.00;0.63;325.44;0.00;0.00;0.62;;;;;11.10;1.00;;;;;;2281548;60;987;-82
2021/11/27 01:56:11;228999.00;0.76;395.83;0.00;0.00;0.62;;;;;11.20;1.00;;;;;;2274444;60;1232;-85
2021/11/27 01:58:39;189301.00;0.63;327.51;0.00;0.00;0.62;;;;;11.50;1.00;;;;;;2270994;60;1571;-81
2021/11/27 02:01:09;236123.00;0.79;408.08;0.00;0.00;0.62;;;;;11.70;1.00;;;;;;2274391;60;1060;-83
2021/11/27 02:03:36;200844.00;0.67;347.38;0.00;0.00;0.62;;;;;11.60;1.00;;;;;;2268843;61;1040;-83
2021/11/27 02:06:06;173976.00;0.58;301.11;0.00;0.00;0.62;;;;;11.80;1.00;;;;;;2265585;60;1132;-85
2021/11/27 02:08:33;228463.00;0.76;394.90;0.00;0.00;0.62;;;;;12.00;1.00;;;;;;2262057;61;1472;-84
2021/11/27 02:11:02;182816.00;0.61;316.34;0.00;0.00;0.62;;;;;12.10;1.00;;;;;;2265435;61;2003;-84
2021/11/27 02:13:29;222853.00;0.74;385.25;0.00;0.00;0.62;;;;;11.90;1.00;;;;;;2269282;61;1036;-83
2021/11/27 02:15:57;175691.00;0.59;304.07;0.00;0.00;0.62;;;;;11.80;1.00;;;;;;2266202;61;1111;-84
2021/11/27 02:18:24;273776.00;0.91;472.84;0.00;0.00;0.62;;;;;11.80;1.00;;;;;;2265394;61;1247;-84
2021/11/27 02:21:00;452316.00;1.51;779.77;69577.00;0.23;121.03;;;;;12.10;1.00;;;;;;2263295;61;957;-82
2021/11/27 02:23:30;260050.00;0.87;449.23;20456.00;0.07;36.06;;;;;12.00;1.00;;;;;;2265445;61;1001;-82
2021/11/27 02:25:57;121279.00;0.40;210.29;0.00;0.00;0.62;;;;;11.10;1.00;;;;;;2262020;61;1203;-83
2021/11/27 02:28:24;196875.00;0.66;340.54;0.00;0.00;0.62;;;;;10.90;1.00;;;;;;2262204;61;1320;-84
2021/11/27 02:30:51;194388.00;0.65;336.26;0.00;0.00;0.62;;;;;10.90;1.00;;;;;;2261300;61;1915;-86
2021/11/27 02:33:18;279641.00;0.93;482.92;0.00;0.00;0.62;;;;;11.20;1.00;;;;;;2257462;61;1033;-84
2021/11/27 02:35:45;281127.00;0.94;485.48;0.00;0.00;0.62;;;;;11.40;1.00;;;;;;2253231;60;1049;-83
2021/11/27 02:38:14;242999.00;0.81;419.91;0.00;0.00;0.62;;;;;11.40;1.00;;;;;;2266129;61;1456;-84
2021/11/27 02:40:42;413874.00;1.38;713.66;0.00;0.00;0.62;;;;;11.70;1.00;;;;;;2269428;60;1048;-83
2021/11/27 02:43:10;245077.00;0.82;423.48;0.00;0.00;0.62;;;;;11.90;1.00;;;;;;2269024;61;1108;-86
2021/11/27 02:48:05;403532.00;1.35;695.88;9863.00;0.03;17.71;;;;;11.60;1.00;;;;;;2266985;61;1349;-86
2021/11/27 02:50:32;161895.00;0.54;280.30;0.00;0.00;0.62;;;;;11.70;1.00;;;;;;2265391;61;1088;-85
2021/11/27 02:53:02;256115.00;0.85;442.47;0.00;0.00;0.62;;;;;12.10;1.00;;;;;;2265354;61;1989;-86
2021/11/27 02:55:30;115323.00;0.38;200.01;0.00;0.00;0.62;;;;;11.90;1.00;;;;;;2277593;60;973;-84
2021/11/27 02:57:57;176262.00;0.59;305.05;0.00;0.00;0.62;;;;;11.20;1.00;;;;;;2277347;60;1437;-85
2021/11/27 03:00:26;129490.00;0.43;224.45;0.00;0.00;0.62;;;;;11.00;1.00;;;;;;2277472;60;1008;-83
2021/11/27 03:02:55;201926.00;0.67;349.24;0.00;0.00;0.62;;;;;10.80;1.00;;;;;;2277439;60;1076;-81
2021/11/27 03:05:22;174347.00;0.58;301.75;0.00;0.00;0.62;;;;;10.40;1.00;;;;;;2277461;60;1037;-85
2021/11/27 03:07:50;135780.00;0.45;235.30;0.00;0.00;0.62;;;;;10.40;1.00;;;;;;2277392;60;1443;-83
2021/11/27 03:10:19;151451.00;0.50;262.31;0.00;0.00;0.62;;;;;10.50;1.00;;;;;;2264880;61;950;-85
2021/11/27 03:12:48;254060.00;0.85;438.93;0.00;0.00;0.62;;;;;10.60;1.00;;;;;;2261796;61;2014;-85
2021/11/27 03:15:18;98274.00;0.33;170.59;0.00;0.00;0.62;;;;;11.00;1.00;;;;;;2266709;61;1010;-84
2021/11/27 03:17:46;90902.00;0.30;157.87;0.00;0.00;0.62;;;;;10.90;1.00;;;;;;2269870;61;1434;-83
2021/11/27 03:22:42;159905.00;0.53;276.88;0.00;0.00;0.62;;;;;11.30;1.00;;;;;;2283643;61;1280;-87
2021/11/27 03:25:10;78845.00;0.26;137.04;0.00;0.00;0.62;;;;;11.30;1.00;;;;;;2281951;61;519;-85
2021/11/27 03:27:38;214952.00;0.72;371.66;0.00;0.00;0.62;;;;;11.40;1.00;;;;;;2281864;60;1344;-84
2021/11/27 03:30:11;120491.00;0.40;208.93;0.00;0.00;0.62;;;;;11.50;1.00;;;;;;2282032;60;1088;-83
2021/11/27 03:32:38;251433.00;0.84;434.42;32584.00;0.11;57.06;;;;;11.10;1.00;;;;;;2281980;60;1919;-82
2021/11/27 03:35:05;170802.00;0.57;295.65;0.00;0.00;0.62;;;;;10.80;1.00;;;;;;2274749;60;1049;-83
2021/11/27 03:37:32;180731.00;0.60;312.75;0.00;0.00;0.62;;;;;10.80;1.00;;;;;;2274862;60;1072;-84
2021/11/27 03:39:59;194810.00;0.65;336.99;0.00;0.00;0.62;;;;;10.90;1.00;;;;;;2273329;60;1548;-86
2021/11/27 03:42:26;221362.00;0.74;382.69;0.00;0.00;0.62;;;;;10.90;1.00;;;;;;2269947;61;1087;-84
2021/11/27 03:44:53;268525.00;0.90;463.81;0.00;0.00;0.62;;;;;10.90;1.00;;;;;;2266601;61;1076;-85
2021/11/27 03:47:22;177465.00;0.59;307.12;0.00;0.00;0.62;;;;;10.80;1.00;;;;;;2266685;61;1041;-81
2021/11/27 03:49:49;201598.00;0.67;348.67;0.00;0.00;0.62;;;;;11.10;1.00;;;;;;2265004;61;1410;-81
2021/11/27 03:52:16;136629.00;0.46;236.76;0.00;0.00;0.62;;;;;11.20;1.00;;;;;;2265221;61;1993;-83
2021/11/27 03:54:43;55679.00;0.19;97.01;0.00;0.00;0.62;;;;;10.80;1.00;;;;;;2265278;61;1040;-86
2021/11/27 03:57:10;151554.00;0.51;262.49;0.00;0.00;0.62;;;;;11.00;1.00;;;;;;2262248;61;1116;-81
2021/11/27 03:59:37;88310.00;0.29;153.39;0.00;0.00;0.62;;;;;11.30;1.00;;;;;;2262612;61;1334;-85
2021/11/27 04:02:06;71097.00;0.24;123.66;0.00;0.00;0.62;;;;;11.10;1.00;;;;;;2262248;61;1025;-82
2021/11/27 04:04:38;171031.00;0.57;296.04;0.00;0.00;0.62;;;;;11.00;1.00;;;;;;2262593;61;1018;-84
2021/11/27 04:07:05;122958.00;0.41;213.18;0.00;0.00;0.62;;;;;11.10;1.00;;;;;;2264557;60;1052;-86
2021/11/27 04:12:00;171092.00;0.57;296.15;0.00;0.00;0.62;;;;;11.00;1.00;;;;;;2283377;60;1899;-83
2021/11/27 04:14:27;107886.00;0.36;187.18;0.00;0.00;0.62;;;;;10.90;1.00;;;;;;2281735;60;1071;-82
2021/11/27 04:16:54;116292.00;0.39;201.69;0.00;0.00;0.62;;;;;10.60;1.00;;;;;;2277845;60;1056;-83
2021/11/27 04:19:21;190515.00;0.64;329.60;0.00;0.00;0.62;;;;;10.60;1.00;;;;;;2274522;60;1491;-80
2021/11/27 04:21:49;96422.00;0.32;167.40;0.00;0.00;0.62;;;;;10.60;1.00;;;;;;2281096;60;1028;-81
2021/11/27 04:24:16;208531.00;0.70;360.61;0.00;0.00;0.62;;;;;10.70;1.00;;;;;;2277815;60;1027;-85
2021/11/27 04:26:43;156139.00;0.52;270.39;0.00;0.00;0.62;;;;;10.20;1.00;;;;;;2281684;60;1008;-85
2021/11/27 04:29:09;138837.00;0.46;240.57;0.00;0.00;0.62;;;;;10.00;1.00;;;;;;2281593;60;1387;-84
2021/11/27 04:31:36;165868.00;0.55;287.15;0.00;0.00;0.62;;;;;10.10;1.00;;;;;;2284392;60;1921;-83
2021/11/27 04:34:05;193952.00;0.65;335.51;0.00;0.00;0.62;;;;;10.10;1.00;;;;;;2274475;60;1001;-81
2021/11/27 04:36:32;170201.00;0.57;294.61;0.00;0.00;0.62;;;;;10.00;1.00;;;;;;2271366;60;1100;-86
2021/11/27 04:39:01;123674.00;0.41;214.42;0.00;0.00;0.62;;;;;10.20;1.00;;;;;;2283969;60;1336;-83
2021/11/27 04:41:28;240470.00;0.80;415.56;25531.00;0.09;44.85;;;;;10.50;1.00;;;;;;2280967;60;1123;-84
2021/11/27 04:43:55;301685.00;1.01;520.82;0.00;0.00;0.62;;;;;10.10;1.00;;;;;;2281709;60;1067;-85
2021/11/27 04:46:22;227332.00;0.76;392.96;0.00;0.00;0.62;;;;;10.00;1.00;;;;;;2274509;60;1001;-84
2021/11/27 04:48:48;254041.00;0.85;438.90;0.00;0.00;0.62;;;;;10.00;1.00;;;;;;2280908;60;1485;-82
2021/11/27 04:51:15;119263.00;0.40;206.81;0.00;0.00;0.62;;;;;9.70;1.00;;;;;;2281020;60;1022;-80
2021/11/27 04:53:43;232255.00;0.77;401.43;0.00;0.00;0.62;;;;;9.80;1.00;;;;;;2274414;60;1940;-83
2021/11/27 04:56:11;146989.00;0.49;254.62;0.00;0.00;0.62;;;;;10.10;1.00;;;;;;2281023;60;1134;-85
2021/11/27 04:58:38;130168.00;0.43;225.62;0.00;0.00;0.62;;;;;10.20;1.00;;;;;;2280881;60;1467;-83
2021/11/27 05:01:06;190981.00;0.64;330.40;0.00;0.00;0.62;;;;;10.70;1.00;;;;;;2280972;60;1036;-83
2021/11/27 05:03:33;39491.00;0.13;69.01;0.00;0.00;0.62;;;;;10.50;1.00;;;;;;2280903;60;1012;-83
2021/11/27 05:06:00;90768.00;0.30;157.63;0.00;0.00;0.62;;;;;10.60;1.00;;;;;;2274389;60;1121;-85
2021/11/27 05:08:27;116201.00;0.39;201.53;0.00;0.00;0.62;;;;;10.30;1.00;;;;;;2280933;60;1479;-83
2021/11/27 05:10:54;115808.00;0.39;200.85;0.00;0.00;0.62;;;;;10.70;1.00;;;;;;2280861;60;947;-83
2021/11/27 05:13:22;74606.00;0.25;129.72;0.00;0.00;0.62;;;;;10.70;1.00;;;;;;2274298;60;2006;-84
2021/11/27 05:15:49;208499.00;0.69;360.55;0.00;0.00;0.62;;;;;11.00;1.00;;;;;;2280780;60;1005;-83
2021/11/27 05:18:16;149739.00;0.50;259.36;0.00;0.00;0.62;;;;;11.10;1.00;;;;;;2271000;60;1335;-83
2021/11/27 05:20:43;60906.00;0.20;106.04;0.00;0.00;0.62;;;;;11.00;1.00;;;;;;2281534;60;976;-84
2021/11/27 05:23:10;74237.00;0.25;129.08;0.00;0.00;0.62;;;;;11.30;1.00;;;;;;2274344;60;958;-85
2021/11/27 05:25:37;158801.00;0.53;274.97;0.00;0.00;0.62;;;;;10.80;1.00;;;;;;2280832;60;1019;-85
2021/11/27 05:28:04;72732.00;0.24;126.48;0.00;0.00;0.62;;;;;10.60;1.00;;;;;;2280859;60;1372;-84
2021/11/27 05:30:32;145507.00;0.49;252.06;0.00;0.00;0.62;;;;;10.50;1.00;;;;;;2284198;60;1171;-83
2021/11/27 05:33:11;205887.00;0.69;356.06;0.00;0.00;0.62;;;;;10.60;1.00;;;;;;2281492;60;1986;-84
2021/11/27 05:35:39;81598.00;0.27;141.80;0.00;0.00;0.62;;;;;10.80;1.00;;;;;;2280837;60;985;-83
2021/11/27 05:38:06;298152.00;0.99;514.74;0.00;0.00;0.62;;;;;10.80;1.00;;;;;;2280727;60;1449;-81
2021/11/27 05:40:34;267489.00;0.89;462.03;0.00;0.00;0.62;;;;;10.30;1.00;;;;;;2281152;60;1115;-83
2021/11/27 05:43:01;199472.00;0.66;345.01;0.00;0.00;0.62;;;;;9.30;1.00;;;;;;2280660;60;1119;-85
2021/11/27 05:45:29;258723.00;0.86;446.95;0.00;0.00;0.62;;;;;9.20;1.00;;;;;;2280638;60;938;-81
2021/11/27 05:48:00;255644.00;0.85;441.66;0.00;0.00;0.62;;;;;9.10;1.00;;;;;;2280531;60;1443;-82
2021/11/27 05:50:27;195720.00;0.65;338.56;0.00;0.00;0.62;;;;;8.40;1.00;;;;;;2277266;60;1068;-85
2021/11/27 05:52:54;217773.00;0.73;376.51;0.00;0.00;0.62;;;;;8.20;1.00;;;;;;2277328;60;1989;-83
2021/11/27 05:55:22;292411.00;0.97;504.87;0.00;0.00;0.62;;;;;8.20;1.00;;;;;;2280675;60;1075;-85
2021/11/27 05:57:50;170175.00;0.57;294.57;0.00;0.00;0.62;;;;;8.20;1.00;;;;;;2277242;60;1491;-84
2021/11/27 06:00:18;172247.00;0.57;298.14;0.00;0.00;0.62;;;;;8.20;1.00;;;;;;2280718;60;1066;-82
2021/11/27 06:02:45;118470.00;0.39;205.44;0.00;0.00;0.62;;;;;8.10;1.00;;;;;;2280663;60;1028;-82
2021/11/27 06:05:13;234860.00;0.78;405.91;0.00;0.00;0.62;;;;;8.10;1.00;;;;;;2281070;60;996;-84
2021/11/27 06:07:40;100060.00;0.33;173.68;0.00;0.00;0.62;;;;;7.70;1.00;;;;;;2284035;60;1459;-84
2021/11/27 06:10:09;116812.00;0.39;202.58;0.00;0.00;0.62;;;;;7.80;1.00;;;;;;2280679;60;1142;-84
2021/11/27 06:12:36;247852.00;0.83;428.26;0.00;0.00;0.62;;;;;7.80;1.00;;;;;;2281029;60;1939;-85
2021/11/27 06:15:05;81990.00;0.27;142.47;0.00;0.00;0.62;;;;;8.10;1.00;;;;;;2280687;60;1054;-84
2021/11/27 06:17:31;149913.00;0.50;259.66;0.00;0.00;0.62;;;;;8.00;1.00;;;;;;2270927;60;960;-83
2021/11/27 06:19:58;164917.00;0.55;285.51;0.00;0.00;0.62;;;;;8.30;1.00;;;;;;2281315;60;1356;-84
2021/11/27 06:22:27;142851.00;0.48;247.49;0.00;0.00;0.62;;;;;8.30;1.00;;;;;;2274377;60;1143;-81
2021/11/27 06:24:53;111615.00;0.37;193.62;0.00;0.00;0.62;;;;;8.50;1.00;;;;;;2277428;60;1132;-83
2021/11/27 06:27:20;199380.00;0.66;344.86;0.00;0.00;0.62;;;;;8.60;1.00;;;;;;2280704;60;1154;-84
2021/11/27 06:29:49;318468.00;1.06;549.66;0.00;0.00;0.62;;;;;9.10;1.00;;;;;;2280673;60;1456;-83
2021/11/27 06:32:16;97987.00;0.33;170.10;0.00;0.00;0.62;;;;;9.00;1.00;;;;;;2280655;60;1923;-86
2021/11/27 06:34:43;154419.00;0.51;267.42;0.00;0.00;0.62;;;;;9.20;1.00;;;;;;2281342;60;1078;-83
2021/11/27 06:37:10;162458.00;0.54;281.27;0.00;0.00;0.62;;;;;9.00;1.00;;;;;;2280668;60;979;-84
2021/11/27 06:39:38;161894.00;0.54;280.30;0.00;0.00;0.62;;;;;9.30;1.00;;;;;;2272679;60;1473;-84
2021/11/27 06:42:06;164492.00;0.55;284.78;0.00;0.00;0.62;;;;;9.00;1.00;;;;;;2272834;60;1048;-84
2021/11/27 06:44:34;137242.00;0.46;237.82;0.00;0.00;0.62;;;;;9.30;1.00;;;;;;2272629;60;1088;-85
2021/11/27 06:47:01;320170.00;1.07;552.59;0.00;0.00;0.62;;;;;9.40;1.00;;;;;;2266076;61;993;-83
2021/11/27 06:49:29;183605.00;0.61;317.70;0.00;0.00;0.62;;;;;9.50;1.00;;;;;;2272969;60;1361;-82
2021/11/27 06:51:57;203739.00;0.68;352.36;0.00;0.00;0.62;;;;;9.40;1.00;;;;;;2269308;60;1084;-84
2021/11/27 06:54:24;164262.00;0.55;284.38;0.00;0.00;0.62;;;;;9.30;1.00;;;;;;2266051;61;1001;-85
2021/11/27 06:56:52;162202.00;0.54;280.83;0.00;0.00;0.62;;;;;9.10;1.00;;;;;;2273083;61;1036;-84
2021/11/27 06:59:19;226059.00;0.75;390.77;0.00;0.00;0.62;;;;;9.00;1.00;;;;;;2276503;61;1360;-85
2021/11/27 07:01:46;240262.00;0.80;415.20;0.00;0.00;0.62;;;;;8.40;1.00;;;;;;2270638;61;1030;-85
2021/11/27 07:04:13;91484.00;0.30;158.87;0.00;0.00;0.62;;;;;8.00;1.00;;;;;;2268893;61;1001;-83
2021/11/27 07:09:08;299184.00;1.00;516.52;0.00;0.00;0.62;;;;;7.70;1.00;;;;;;2267371;61;1325;-82
2021/11/27 07:11:35;154654.00;0.52;267.83;0.00;0.00;0.62;;;;;8.00;1.00;;;;;;2252903;61;1042;-85
2021/11/27 07:14:04;133188.00;0.44;230.83;0.00;0.00;0.62;;;;;8.30;1.00;;;;;;2252953;61;1995;-84
2021/11/27 07:16:31;200662.00;0.67;347.06;0.00;0.00;0.62;;;;;8.90;1.00;;;;;;2249623;61;1017;-84
2021/11/27 07:18:58;197839.00;0.66;342.20;0.00;0.00;0.62;;;;;8.90;1.00;;;;;;2247148;61;1333;-85
2021/11/27 07:23:53;282370.00;0.94;487.61;0.00;0.00;0.62;;;;;8.90;1.00;;;;;;2266795;60;1397;-83
2021/11/27 07:28:49;275372.00;0.92;475.58;0.00;0.00;0.62;;;;;9.20;1.00;;;;;;2283889;60;1385;-81
2021/11/27 07:31:18;263050.00;0.88;454.39;0.00;0.00;0.62;;;;;9.40;1.00;;;;;;2282123;60;989;-83
2021/11/27 07:36:14;273982.00;0.91;473.19;0.00;0.00;0.62;;;;;9.50;1.00;;;;;;2267119;60;1417;-85
2021/11/27 07:38:40;255396.00;0.85;441.23;0.00;0.00;0.62;;;;;9.70;1.00;;;;;;2264971;61;1396;-83
2021/11/27 07:41:07;147020.00;0.49;254.67;0.00;0.00;0.62;;;;;9.80;1.00;;;;;;2252691;61;969;-83
2021/11/27 07:43:34;202116.00;0.67;349.57;0.00;0.00;0.62;;;;;9.90;1.00;;;;;;2249547;61;1167;-83
2021/11/27 07:46:01;107962.00;0.36;187.31;0.00;0.00;0.62;;;;;10.00;1.00;;;;;;2246787;61;989;-83
2021/11/27 07:48:32;158804.00;0.53;274.98;0.00;0.00;0.62;;;;;10.20;1.00;;;;;;2246684;61;1464;-82
2021/11/27 07:50:59;254452.00;0.85;439.61;0.00;0.00;0.62;;;;;10.00;1.00;;;;;;2260977;61;970;-84
2021/11/27 07:53:27;213244.00;0.71;368.72;0.00;0.00;0.62;;;;;10.00;1.00;;;;;;2257885;61;1993;-84
2021/11/27 07:55:53;205130.00;0.68;354.75;0.00;0.00;0.62;;;;;9.50;1.00;;;;;;2254613;61;1124;-85
2021/11/27 08:10:41;242772.00;0.81;419.52;0.00;0.00;0.62;;;;;10.00;1.00;;;;;;2283173;60;1369;-84
2021/11/27 08:15:35;284995.00;0.95;492.13;0.00;0.00;0.62;;;;;9.50;1.00;;;;;;2266516;60;1405;-85
2021/11/27 08:22:58;103796.00;0.35;180.12;0.00;0.00;0.62;;;;;10.10;1.00;;;;;;2266755;61;1389;-83
2021/11/27 08:25:25;320910.00;1.07;553.86;0.00;0.00;0.62;;;;;10.30;1.00;;;;;;2264856;61;1021;-84
2021/11/27 08:27:54;188917.00;0.63;326.84;0.00;0.00;0.62;;;;;10.50;1.00;;;;;;2261326;60;1443;-84
2021/11/27 08:30:21;250244.00;0.83;432.37;0.00;0.00;0.62;;;;;10.40;1.00;;;;;;2261435;60;1035;-85
2021/11/27 08:35:16;181141.00;0.60;313.45;0.00;0.00;0.62;;;;;10.40;1.00;;;;;;2267061;61;1294;-84
2021/11/27 08:40:12;156432.00;0.52;270.89;0.00;0.00;0.62;;;;;10.60;1.00;;;;;;2266975;61;1310;-85
2021/11/27 08:42:42;152206.00;0.51;263.61;0.00;0.00;0.62;;;;;10.80;1.00;;;;;;2264738;61;934;-83
2021/11/27 08:45:13;239466.00;0.80;413.83;0.00;0.00;0.62;;;;;11.10;1.00;;;;;;2264655;60;1001;-86
2021/11/27 08:50:10;191557.00;0.64;331.39;0.00;0.00;0.62;;;;;11.50;1.00;;;;;;2282974;60;1407;-82
2021/11/27 08:52:37;149784.00;0.50;259.44;0.00;0.00;0.62;;;;;11.60;1.00;;;;;;2277470;60;1906;-84
2021/11/27 08:57:33;325658.00;1.09;562.02;0.00;0.00;0.62;;;;;11.60;1.00;;;;;;2266603;61;1290;-85
2021/11/27 09:00:00;205702.00;0.69;355.74;10763.00;0.04;19.27;;;;;11.30;1.00;;;;;;2261817;60;1528;-85
2021/11/27 09:02:29;251325.00;0.84;434.23;0.00;0.00;0.62;;;;;11.10;1.00;;;;;;2264932;61;1023;-83
2021/11/27 09:04:56;216510.00;0.72;374.34;0.00;0.00;0.62;;;;;11.10;1.00;;;;;;2274876;60;1136;-86
2021/11/27 09:07:23;175269.00;0.58;303.34;0.00;0.00;0.62;;;;;10.70;1.00;;;;;;2252162;61;1170;-81
2021/11/27 09:09:50;266509.00;0.89;460.34;1278.00;0.00;2.84;;;;;10.80;1.00;;;;;;2246235;60;1454;-84
2021/11/27 09:12:20;157769.00;0.53;273.20;0.00;0.00;0.62;;;;;11.00;1.00;;;;;;2252546;61;984;-85
2021/11/27 09:14:48;139307.00;0.46;241.38;0.00;0.00;0.62;;;;;11.20;1.00;;;;;;2259139;61;2018;-85
2021/11/27 09:17:15;264377.00;0.88;456.68;0.00;0.00;0.62;;;;;11.20;1.00;;;;;;2259139;61;1091;-82
2021/11/27 09:19:44;270952.00;0.90;467.98;0.00;0.00;0.62;;;;;11.30;1.00;;;;;;2252401;61;1374;-85
2021/11/27 09:22:11;215736.00;0.72;373.01;0.00;0.00;0.62;;;;;11.30;1.00;;;;;;2245752;61;952;-85
2021/11/27 09:27:06;248018.00;0.83;428.54;0.00;0.00;0.62;;;;;10.70;1.00;;;;;;2282748;60;1396;-82
2021/11/27 09:29:35;215630.00;0.72;372.82;0.00;0.00;0.62;;;;;10.20;1.00;;;;;;2268755;61;1378;-80
2021/11/27 09:32:02;406271.00;1.35;700.59;0.00;0.00;0.62;;;;;9.80;1.00;;;;;;2268660;61;1000;-83
2021/11/27 09:34:29;261228.00;0.87;451.26;0.00;0.00;0.62;;;;;9.80;1.00;;;;;;2264649;61;1995;-82
2021/11/27 09:36:58;331500.00;1.11;572.06;0.00;0.00;0.62;;;;;10.00;1.00;;;;;;2264804;61;1054;-80
2021/11/27 09:39:25;197621.00;0.66;341.83;0.00;0.00;0.62;;;;;10.00;1.00;;;;;;2264463;61;1207;-82
2021/11/27 09:41:52;165806.00;0.55;287.04;0.00;0.00;0.62;;;;;10.40;1.00;;;;;;2256774;61;1049;-83
2021/11/27 09:44:19;172926.00;0.58;299.31;0.00;0.00;0.62;;;;;10.70;1.00;;;;;;2244392;61;1053;-82
2021/11/27 09:46:47;297503.00;0.99;513.63;0.00;0.00;0.62;;;;;10.70;1.00;;;;;;2245893;61;1042;-83
2021/11/27 09:49:20;162518.00;0.54;281.38;0.00;0.00;0.62;;;;;10.60;1.00;;;;;;2246089;61;1433;-84
2021/11/27 09:51:50;213976.00;0.71;369.98;0.00;0.00;0.62;;;;;10.70;1.00;;;;;;2245365;61;937;-83
2021/11/27 09:54:18;335136.00;1.12;578.31;0.00;0.00;0.62;;;;;10.30;1.00;;;;;;2244375;61;1912;-82
2021/11/27 09:56:45;235942.00;0.79;407.77;0.00;0.00;0.62;;;;;9.90;1.00;;;;;;2244665;61;1077;-83
2021/11/27 09:59:12;349174.00;1.16;602.44;40228.00;0.13;70.28;;;;;10.00;1.00;;;;;;2243547;61;1371;-84
2021/11/27 10:01:44;202655.00;0.68;350.49;0.00;0.00;0.62;;;;;10.00;1.00;;;;;;2249597;61;936;-83
2021/11/27 10:04:13;262377.00;0.87;453.24;0.00;0.00;0.62;;;;;10.00;1.00;;;;;;2250044;61;943;-83
2021/11/27 10:06:42;191746.00;0.64;331.71;0.00;0.00;0.62;;;;;9.70;1.00;;;;;;2255828;61;1049;-79
2021/11/27 10:09:10;412332.00;1.37;711.01;22905.00;0.08;40.30;;;;;9.50;1.00;;;;;;2256329;61;1318;-84
2021/11/27 10:11:40;240000.00;0.80;414.75;6487.00;0.02;11.86;;;;;9.40;1.00;;;;;;2249333;61;1112;-83
2021/11/27 10:14:08;358360.00;1.19;618.23;0.00;0.00;0.62;;;;;9.20;1.00;;;;;;2252786;61;1999;-82
2021/11/27 10:16:55;303812.00;1.01;524.47;0.00;0.00;0.62;;;;;9.30;1.00;;;;;;2257618;61;1040;-81
2021/11/27 10:19:22;319971.00;1.07;552.25;0.00;0.00;0.62;;;;;9.90;1.00;;;;;;2252681;61;1386;-85
2021/11/27 10:21:55;598636.00;2.00;1031.86;0.00;0.00;0.62;;;;;10.40;1.00;;;;;;2256540;61;954;-83
2021/11/27 10:24:25;899946.00;3.00;1556.03;152496.00;0.51;264.11;;;;;10.10;1.00;;;;;;2256631;61;1016;-82
2021/11/27 10:26:55;881469.00;2.94;1523.60;84535.00;0.28;146.87;;;;;9.80;1.00;;;;;;2256460;61;1037;-83
2021/11/27 10:29:26;941228.00;3.14;1628.65;82939.00;0.28;144.11;;;;;9.90;1.00;;;;;;2261791;61;1440;-83
2021/11/27 10:32:06;898759.00;3.00;1553.94;183475.00;0.61;317.47;;;;;9.70;1.00;;;;;;2262469;61;942;-83
2021/11/27 10:37:01;801938.00;2.67;1384.50;97253.00;0.32;168.83;;;;;9.60;1.00;;;;;;2263047;61;1410;-81
2021/11/27 10:39:28;661768.00;2.21;1141.00;79479.00;0.26;138.14;;;;;9.40;1.00;;;;;;2272858;61;1355;-81
2021/11/27 11:02:10;708549.00;2.36;1222.07;66480.00;0.22;115.68;;;;;9.30;1.00;;;;;;2279826;61;1313;-85
2021/11/27 11:52:20;598448.00;1.99;1031.54;86193.00;0.29;149.73;;;;;8.50;1.00;;;;;;2275552;61;1306;-86
2021/11/27 11:57:16;601575.00;2.01;1036.94;81494.00;0.27;141.62;;;;;8.30;1.00;;;;;;2279305;61;1286;-87
2021/11/27 12:27:10;772968.00;2.58;1334.02;87548.00;0.29;152.07;;;;;9.40;1.00;;;;;;2263046;61;1032;-89
2021/11/27 12:42:29;753939.00;2.51;1300.91;11693.00;0.04;20.88;;;;;10.40;1.00;;;;;;2407440;40;3693;31
2021/11/27 13:04:44;375100.00;1.25;647.00;0.00;0.00;0.62;;;;;9.10;1.00;;;;;;2262763;61;1173;-81
2021/11/27 13:25:12;1475040.00;4.92;2596.24;0.00;0.00;0.62;;;;;8.60;1.00;;;;;;2266829;61;1008;-87
2021/11/27 14:14:03;269945.00;0.90;466.25;0.00;0.00;0.62;;;;;9.60;1.00;;;;;;2278979;61;1942;-88